Aviation Digital Data Service (ADDS)

Output produced by TAFs form (0106 UTC 29 March 2015)
found at http://aviationweather.gov/adds/tafs/
 
KDMN 282332Z 2900/2924 29014G24KT P6SM SKC 
     FM290200 29008KT P6SM SCT250 
     FM291500 33008KT P6SM BKN250 
     FM291900 25012G22KT P6SM BKN250